सभी
Warkworth Airport (Warkworth, New South Wales) YWKW मौसम
There is no TAF data available at YWKW or any nearby airports.
There is no METAR data available at YWKW. Showing METAR data for YCNK (25 mi SE).
Recent CES METAR history (no data for YWKW)
| Date | Time (AEST) | Flight Rules | Wind Dir. | Speed | Type | Height AGL (ft) | Visibility | Temp (°C) | Temp (°F) | Dew Point (°C) | Dew Point (°F) | Rel. Humid. | Pressure | Density Altitude | Remarks |
|---|---|---|---|---|---|---|---|---|---|---|---|---|---|---|---|
| 03-मई | 10:00 | n/a | 50° | 3 kt | Missing | 22° | 71° | 14° | 57° | 60% | 1022 mb | 791 ft | |||
| 03-मई | 09:00 | n/a | 100° | 1 kt | Missing | 20° | 68° | 15° | 59° | 73% | 1022 mb | 551 ft | |||
| 03-मई | 08:00 | n/a | Calm | Missing | 16° | 60° | 16° | 60° | 100% | 1022 mb | 71 ft | ||||
| 03-मई | 07:00 | n/a | Calm | Missing | 12° | 53° | 11° | 51° | 94% | 1022 mb | -409 ft | ||||
| 03-मई | 06:00 | n/a | 240° | 2 kt | Missing | 12° | 53° | 11° | 51° | 94% | 1021 mb | -379 ft | |||
| 03-मई | 05:00 | n/a | 170° | 3 kt | Missing | 14° | 57° | 13° | 55° | 94% | 1021 mb | -139 ft | |||
| 03-मई | 04:00 | n/a | 210° | 4 kt | Missing | 16° | 60° | 14° | 57° | 88% | 1021 mb | 101 ft | |||
| 03-मई | 03:00 | n/a | 210° | 3 kt | Missing | 16° | 60° | 14° | 57° | 88% | 1021 mb | 101 ft | |||
| 03-मई | 02:00 | n/a | 200° | 5 kt | Missing | 16° | 60° | 14° | 57° | 88% | 1022 mb | 71 ft | |||
| 03-मई | 01:00 | n/a | 190° | 3 kt | Missing | 16° | 60° | 14° | 57° | 88% | 1022 mb | 71 ft | |||
| 03-मई | 00:00 | n/a | 250° | 3 kt | Missing | 16° | 60° | 14° | 57° | 88% | 1022 mb | 71 ft | |||
| 02-मई | 23:00 | n/a | 110° | 6 kt | Missing | 17° | 62° | 15° | 59° | 88% | 1022 mb | 191 ft | |||
| 02-मई | 22:00 | n/a | 200° | 3 kt | Missing | 17° | 62° | 14° | 57° | 82% | 1023 mb | 162 ft | |||
| 02-मई | 21:00 | n/a | 120° | 5 kt | Missing | 19° | 66° | 14° | 57° | 73% | 1023 mb | 402 ft | |||
| 02-मई | 20:00 | n/a | 90° | 8 kt | Missing | 20° | 68° | 14° | 57° | 68% | 1023 mb | 522 ft | |||
| 02-मई | 19:00 | n/a | 90° | 8 kt | Missing | 20° | 68° | 14° | 57° | 68% | 1022 mb | 551 ft | |||
| 02-मई | 18:00 | n/a | 100° | 8 kt | Missing | 21° | 69° | 14° | 57° | 64% | 1022 mb | 671 ft | |||
| 02-मई | 17:00 | n/a | 100° | 9 kt | Missing | 23° | 73° | 14° | 57° | 57% | 1021 mb | 941 ft | |||
| 02-मई | 16:00 | n/a | 100° | 9 kt | Missing | 24° | 75° | 13° | 55° | 50% | 1021 mb | 1,061 ft | |||
| 02-मई | 15:00 | n/a | 90° | 9 kt | Missing | 25° | 77° | 14° | 57° | 50% | 1021 mb | 1,181 ft | |||
| 02-मई | 14:00 | n/a | 100° | 9 kt | Missing | 24° | 75° | 15° | 59° | 57% | 1022 mb | 1,031 ft | |||
| 02-मई | 13:00 | n/a | 90° | 12 kt | Missing | 24° | 75° | 14° | 57° | 54% | 1022 mb | 1,031 ft | |||
| 02-मई | 12:00 | n/a | 90° | 12 kt | Missing | 25° | 77° | 15° | 59° | 54% | 1023 mb | 1,122 ft | |||
| 02-मई | 11:00 | n/a | 80° | 11 kt | Missing | 24° | 75° | 15° | 59° | 57% | 1024 mb | 972 ft |
लॉगिन
| Your browser is unsupported. अपना ब्राऊजर अपग्रेड करें |
